Anderson Acres, Nevada
Current Conditions -  °F | °C
As of 11:55 PM on Tuesday 21 Oct 2014 (Local Time) from KRTS Reporting Station
Clear Clear  
Wind Chill: 37°   Ceiling: Unl
Heat Index: 37°   Visibility: 10mi
Dew Point: 25°   Wind: 0mph
Humidity: 60%   Direction: NA
Pressure: 30.11"   Gusts: NA
Location:  39.7378°N, 119.889°W
Report Text: KRTS 220655Z AUTO 00000KT 10SM CLR 03/M04 A3011 RMK AO2
Loading
Personal Weather Stations






























Interactive Weather Map
Tropical Storm Tracking
New forecast layout! Learn more

10-Day Weather Forecast

Advertisements
Track Severe Weather on mobile